Time;durP1;ratioP1;P1;durP2;ratioP2;P2;SDS_P1;SDS_P2;PMS_P1;PMS_P2;Temp;Humidity;BMP_temperature;BMP_pressure;BME280_temperature;BME280_humidity;BME280_pressure;Samples;Min_cycle;Max_cycle;Signal;HPM_P1;HPM_P2
2022/09/24 00:00:52;;;;;;;11.53;8.17;;;;;;;-141.97;64.16;47559.44;5013630;28;20170;-85
2022/09/24 00:03:19;;;;;;;12.97;8.07;;;;;;;-141.97;64.09;47515.22;5013360;28;20233;-86
2022/09/24 00:05:45;;;;;;;12.77;8.30;;;;;;;-141.97;63.59;47538.28;5013088;28;20602;-86
2022/09/24 00:08:13;;;;;;;11.10;8.10;;;;;;;-141.97;63.12;47534.44;5013050;28;20272;-86
2022/09/24 00:10:43;;;;;;;10.47;7.77;;;;;;;-141.97;63.38;47655.53;5012201;28;20177;-86
2022/09/24 00:13:11;;;;;;;11.60;8.47;;;;;;;-141.97;63.27;47547.91;5014252;28;20166;-85
2022/09/24 00:15:38;;;;;;;12.00;7.83;;;;;;;-141.97;63.39;47538.28;5014658;28;20162;-86
2022/09/24 00:18:06;;;;;;;11.30;8.30;;;;;;;-141.97;63.73;47672.84;5014076;28;20226;-86
2022/09/24 00:20:33;;;;;;;10.27;8.00;;;;;;;-141.97;63.76;47546.00;5015572;28;20257;-88
2022/09/24 00:23:00;;;;;;;11.63;7.80;;;;;;;-141.97;64.93;47492.16;5014472;28;20233;-86
2022/09/24 00:28:12;;;;;;;10.10;7.43;;;;;;;-141.97;63.95;47526.75;5013367;28;20225;-86
2022/09/24 00:30:42;;;;;;;12.50;7.60;;;;;;;-141.97;64.04;47513.31;5011928;28;20253;-86
2022/09/24 00:33:09;;;;;;;11.17;7.53;;;;;;;-141.97;64.33;47546.00;5012644;28;20159;-85
2022/09/24 00:35:36;;;;;;;10.90;7.97;;;;;;;-141.97;63.61;47488.31;5012542;28;20155;-85
2022/09/24 00:38:01;;;;;;;10.93;8.17;;;;;;;-141.97;64.00;47544.06;5013017;28;20163;-86
2022/09/24 00:40:32;;;;;;;10.67;7.93;;;;;;;-141.97;64.83;47530.59;5012904;28;20170;-86
2022/09/24 00:42:57;;;;;;;12.10;7.90;;;;;;;-141.97;65.70;47532.53;5013312;28;20229;-86
2022/09/24 00:45:24;;;;;;;11.50;8.20;;;;;;;-141.97;66.20;47534.44;5013071;28;20167;-85
2022/09/24 00:47:50;;;;;;;12.33;8.37;;;;;;;-141.97;66.68;47469.09;5011527;28;20237;-85
2022/09/24 00:50:33;;;;;;;12.83;8.30;;;;;;;-141.97;67.12;47530.59;5013293;28;20201;-86
2022/09/24 00:53:12;;;;;;;13.57;8.67;;;;;;;-141.97;68.04;47553.69;5016570;28;20163;-84
2022/09/24 00:55:39;;;;;;;12.67;8.37;;;;;;;-141.97;67.86;47517.16;5016828;28;20668;-86
2022/09/24 00:58:07;;;;;;;13.03;8.53;;;;;;;-141.97;68.68;47490.25;5013746;28;20596;-85
2022/09/24 01:00:33;;;;;;;12.33;8.50;;;;;;;-141.97;68.53;47682.47;5012703;28;20159;-84
2022/09/24 01:03:08;;;;;;;11.33;7.90;;;;;;;-141.97;67.26;47532.53;5012656;28;20159;-85
2022/09/24 01:05:35;;;;;;;12.17;8.10;;;;;;;-141.97;68.39;47542.16;5010835;28;20532;-86
2022/09/24 01:08:01;;;;;;;11.93;8.10;;;;;;;-141.97;68.35;47530.59;5012520;28;20250;-86
2022/09/24 01:10:55;;;;;;;12.40;8.00;;;;;;;-141.97;68.55;47561.38;5012828;28;20441;-85
2022/09/24 01:13:45;;;;;;;10.33;7.70;;;;;;;-141.97;67.87;47647.84;5015223;28;20155;-85
2022/09/24 01:16:24;;;;;;;11.03;7.77;;;;;;;-141.97;67.78;47513.31;5012227;28;20607;-85
2022/09/24 01:18:59;;;;;;;11.93;7.80;;;;;;;-141.97;66.78;47519.06;5013469;28;20162;-86
2022/09/24 01:21:38;;;;;;;13.50;7.73;;;;;;;-141.97;66.50;47511.38;5012467;28;20200;-86
2022/09/24 01:24:39;;;;;;;12.57;7.90;;;;;;;-141.97;67.06;47546.00;5014656;28;20173;-84
2022/09/24 01:27:18;;;;;;;14.93;8.47;;;;;;;-141.97;67.20;47607.50;5017789;28;20162;-85
2022/09/24 01:30:11;;;;;;;11.33;8.20;;;;;;;-141.97;66.94;47530.59;5015480;28;20245;-86
2022/09/24 01:32:58;;;;;;;14.83;9.17;;;;;;;-141.97;67.30;47478.72;4993940;28;20205;-85
2022/09/24 01:35:42;;;;;;;27.83;14.10;;;;;;;-141.97;67.02;47553.69;4994291;28;20222;-85
2022/09/24 01:38:21;;;;;;;31.63;14.63;;;;;;;-141.97;67.19;47559.44;4995823;28;20187;-85
2022/09/24 01:40:49;;;;;;;20.67;11.63;;;;;;;-141.97;66.49;47517.16;4995019;28;20195;-86
2022/09/24 01:43:17;;;;;;;16.37;9.93;;;;;;;-141.97;66.48;47563.28;4996325;28;20266;-85
2022/09/24 01:45:43;;;;;;;13.37;8.50;;;;;;;-141.97;66.05;47513.31;4991830;28;20203;-85
2022/09/24 01:48:08;;;;;;;12.67;8.30;;;;;;;-141.97;66.26;47530.59;4993631;28;20167;-86
2022/09/24 01:50:44;;;;;;;11.87;8.10;;;;;;;-141.97;66.13;47534.44;4998544;28;20193;-86
2022/09/24 01:53:17;;;;;;;11.77;8.00;;;;;;;-141.97;66.00;47486.41;4993910;28;20163;-84
2022/09/24 01:55:48;;;;;;;16.00;9.57;;;;;;;-141.97;65.98;47538.28;4992944;28;20187;-86
2022/09/24 01:58:20;;;;;;;19.73;11.97;;;;;;;-141.97;66.35;47501.78;4991318;28;20160;-85
2022/09/24 02:00:49;;;;;;;26.60;15.00;;;;;;;-141.97;66.15;47524.84;4991641;28;20155;-85
2022/09/24 02:03:25;;;;;;;47.90;25.73;;;;;;;-141.97;66.28;47542.16;4992598;28;20583;-85
2022/09/24 02:06:00;;;;;;;25.43;14.67;;;;;;;-141.97;66.38;47522.91;4992519;28;20159;-85
2022/09/24 02:08:32;;;;;;;22.87;13.83;;;;;;;-141.97;66.62;47526.75;4995178;28;20174;-84
2022/09/24 02:11:03;;;;;;;16.43;9.37;;;;;;;-141.97;66.19;47496.00;5012990;28;20183;-86
2022/09/24 02:13:38;;;;;;;16.30;10.43;;;;;;;-141.97;65.88;47559.44;5014314;28;20163;-86
2022/09/24 02:16:08;;;;;;;15.03;9.30;;;;;;;-141.97;66.83;47547.91;5014564;28;20280;-86
2022/09/24 02:18:38;;;;;;;26.53;14.03;;;;;;;-141.97;66.73;47542.16;5029426;28;20158;-84
2022/09/24 02:21:09;;;;;;;16.43;10.43;;;;;;;-141.97;66.35;47551.75;5022728;28;20201;-86
2022/09/24 02:23:37;;;;;;;24.23;13.83;;;;;;;-141.97;66.57;47496.00;5015979;28;20163;-86
2022/09/24 02:26:04;;;;;;;41.67;21.80;;;;;;;-141.97;66.44;47515.22;5015016;28;20163;-84
2022/09/24 02:28:31;;;;;;;60.67;30.00;;;;;;;-141.97;66.54;47549.84;5015144;28;20697;-85
2022/09/24 02:31:23;;;;;;;63.47;34.67;;;;;;;-141.97;66.95;47569.06;5015082;28;20614;-86
2022/09/24 02:36:34;;;;;;;24.37;13.57;;;;;;;-141.97;66.78;47538.28;4994189;28;20175;-85
2022/09/24 02:39:00;;;;;;;24.97;14.83;;;;;;;-141.97;66.29;47557.53;5007028;28;20268;-86
2022/09/24 02:41:28;;;;;;;12.50;8.77;;;;;;;-141.97;66.42;47553.69;5010099;28;20231;-85
2022/09/24 02:43:54;;;;;;;11.53;8.40;;;;;;;-141.97;66.81;47555.59;5001940;28;20208;-86
2022/09/24 02:46:19;;;;;;;11.33;8.07;;;;;;;-141.97;67.66;47549.84;5000012;28;20258;-85
2022/09/24 02:48:45;;;;;;;14.93;8.73;;;;;;;-141.97;67.80;47569.06;4994517;28;20178;-85
2022/09/24 02:51:10;;;;;;;14.30;9.43;;;;;;;-141.97;68.07;47534.44;4993663;28;20184;-83
2022/09/24 02:53:35;;;;;;;22.37;12.83;;;;;;;-141.97;67.92;47540.22;4994145;28;20171;-85
2022/09/24 02:56:02;;;;;;;13.93;9.73;;;;;;;-141.97;67.75;47555.59;4993387;28;20179;-85
2022/09/24 02:58:28;;;;;;;11.20;7.80;;;;;;;-141.97;67.60;47536.38;4993240;28;20667;-86
2022/09/24 03:00:54;;;;;;;12.83;8.63;;;;;;;-141.97;68.61;47561.38;4993301;28;20176;-85
2022/09/24 03:03:21;;;;;;;10.87;8.17;;;;;;;-141.97;67.76;47546.00;4993369;28;20170;-85
2022/09/24 03:05:48;;;;;;;13.77;9.10;;;;;;;-141.97;67.45;47522.91;4993796;28;20198;-84
2022/09/24 03:08:13;;;;;;;17.23;10.57;;;;;;;-141.97;67.88;47638.25;4992938;28;20168;-83
2022/09/24 03:10:38;;;;;;;16.40;10.17;;;;;;;-141.97;67.30;47557.53;5003565;28;20573;-84
2022/09/24 03:13:04;;;;;;;15.50;10.03;;;;;;;-141.97;66.81;47496.00;5014514;28;20163;-84
2022/09/24 03:15:29;;;;;;;16.67;10.47;;;;;;;-141.97;67.41;47519.06;5014583;28;20607;-85
2022/09/24 03:17:55;;;;;;;14.87;9.23;;;;;;;-141.97;66.97;47555.59;5013991;28;20655;-85
2022/09/24 03:20:20;;;;;;;12.40;8.10;;;;;;;-141.97;67.23;47538.28;5013972;28;20167;-84
2022/09/24 03:22:50;;;;;;;12.50;8.50;;;;;;;-141.97;67.86;47561.38;5014165;28;20286;-84
2022/09/24 03:25:16;;;;;;;15.83;7.77;;;;;;;-141.97;67.36;47559.44;5014141;28;20551;-84
2022/09/24 03:27:41;;;;;;;12.30;7.90;;;;;;;-141.97;67.17;47544.06;5014241;28;20190;-84
2022/09/24 03:32:51;;;;;;;11.70;7.90;;;;;;;-141.97;66.97;47507.53;5015782;28;20254;-85
2022/09/24 03:35:17;;;;;;;10.67;7.60;;;;;;;-141.97;66.77;47524.84;5015344;28;20182;-85
2022/09/24 03:37:42;;;;;;;10.60;7.47;;;;;;;-141.97;67.15;47557.53;5015359;28;20171;-84
2022/09/24 03:40:08;;;;;;;11.90;7.53;;;;;;;-141.97;67.61;47507.53;5015027;28;20610;-85
2022/09/24 03:42:34;;;;;;;11.03;7.70;;;;;;;-141.97;68.01;47522.91;5013221;28;20256;-85
2022/09/24 03:44:59;;;;;;;14.47;7.70;;;;;;;-141.97;67.83;47534.44;5015056;28;20166;-85
2022/09/24 03:47:25;;;;;;;12.10;8.03;;;;;;;-141.97;68.14;47553.69;5015383;28;20170;-84
2022/09/24 03:49:52;;;;;;;10.73;7.70;;;;;;;-141.97;67.59;47534.44;5013557;28;20591;-84
2022/09/24 03:52:18;;;;;;;12.77;8.13;;;;;;;-141.97;67.28;47532.53;5013590;28;20151;-84
2022/09/24 03:54:43;;;;;;;13.37;7.70;;;;;;;-141.97;66.94;47538.28;5014053;28;20257;-84
2022/09/24 03:57:08;;;;;;;11.53;7.33;;;;;;;-141.97;67.48;47549.84;5012803;28;20163;-84
2022/09/24 03:59:34;;;;;;;9.73;6.77;;;;;;;-141.97;67.87;47519.06;5013530;28;20228;-86
2022/09/24 04:01:59;;;;;;;11.63;7.63;;;;;;;-141.97;68.27;47549.84;5014997;28;20269;-86
2022/09/24 04:04:25;;;;;;;11.83;7.50;;;;;;;-141.97;68.63;47496.00;5014454;28;20650;-85
2022/09/24 04:06:51;;;;;;;9.33;7.20;;;;;;;-141.97;68.36;47551.75;5013640;28;20242;-84
2022/09/24 04:09:17;;;;;;;10.40;7.60;;;;;;;-141.97;68.82;47538.28;5015890;28;20174;-86
2022/09/24 04:11:43;;;;;;;13.93;7.83;;;;;;;-141.97;68.33;47576.75;5013444;28;20402;-85
2022/09/24 04:14:08;;;;;;;11.63;7.67;;;;;;;-141.97;68.42;47515.22;5013461;28;20163;-84
2022/09/24 04:16:34;;;;;;;15.20;8.20;;;;;;;-141.97;68.33;47557.53;5013466;28;20473;-84
2022/09/24 04:19:00;;;;;;;13.33;7.90;;;;;;;-141.97;67.64;47592.13;5013178;28;20158;-86
2022/09/24 04:21:26;;;;;;;12.37;7.63;;;;;;;-141.97;68.94;47557.53;5013563;28;20226;-85
2022/09/24 04:23:51;;;;;;;11.37;7.70;;;;;;;-141.97;69.29;47542.16;5012112;28;20843;-85
2022/09/24 04:26:17;;;;;;;12.00;7.87;;;;;;;-141.97;69.40;47569.06;5013388;28;20170;-85
2022/09/24 04:28:42;;;;;;;12.60;7.40;;;;;;;-141.97;69.46;47540.22;5013306;28;20515;-85
2022/09/24 04:31:08;;;;;;;12.17;7.93;;;;;;;-141.97;69.60;47594.03;5013813;28;20155;-84
2022/09/24 04:33:33;;;;;;;16.83;8.23;;;;;;;-141.97;69.51;47544.06;5013293;28;20169;-85
2022/09/24 04:35:59;;;;;;;12.17;8.17;;;;;;;-141.97;69.56;47538.28;5013170;28;20198;-85
2022/09/24 04:38:24;;;;;;;12.17;7.77;;;;;;;-141.97;68.70;47557.53;5012403;28;20178;-84
2022/09/24 04:40:49;;;;;;;10.93;7.47;;;;;;;-141.97;68.01;47524.84;5013246;28;20240;-85
2022/09/24 04:43:17;;;;;;;14.17;8.30;;;;;;;-141.97;67.89;47574.81;5025210;28;20197;-82
2022/09/24 04:45:43;;;;;;;24.23;10.53;;;;;;;-141.97;67.41;47572.91;5022954;28;20187;-85
2022/09/24 04:48:09;;;;;;;18.00;10.33;;;;;;;-141.97;66.65;47515.22;5014444;28;20166;-85
2022/09/24 04:50:36;;;;;;;17.40;9.33;;;;;;;-141.97;66.25;47557.53;5013783;28;20213;-85
2022/09/24 04:53:02;;;;;;;12.40;8.00;;;;;;;-141.97;65.08;47572.91;5012982;28;20159;-85
2022/09/24 04:55:27;;;;;;;10.87;7.77;;;;;;;-141.97;64.22;47497.94;5013421;28;20216;-84
2022/09/24 04:57:57;;;;;;;14.23;8.40;;;;;;;-141.97;64.04;47569.06;5013514;28;20658;-84
2022/09/24 05:00:23;;;;;;;10.33;7.20;;;;;;;-141.97;63.52;47544.06;5012835;28;20163;-83
2022/09/24 05:02:56;;;;;;;12.50;8.07;;;;;;;-141.97;63.92;47546.00;5011882;28;20701;-85
2022/09/24 05:05:22;;;;;;;13.87;9.30;;;;;;;-141.97;64.11;47580.59;5013434;28;20170;-85
2022/09/24 05:07:48;;;;;;;14.77;10.87;;;;;;;-141.97;64.00;47561.38;5012412;28;20334;-84
2022/09/24 05:10:13;;;;;;;12.57;9.00;;;;;;;-141.97;63.97;47559.44;5015176;28;20170;-85
2022/09/24 05:12:39;;;;;;;13.23;8.00;;;;;;;-141.97;63.96;47484.47;5012579;28;20165;-85
2022/09/24 05:15:06;;;;;;;15.23;8.27;;;;;;;-141.97;63.72;47546.00;5012620;28;20246;-85
2022/09/24 05:17:31;;;;;;;12.67;8.33;;;;;;;-141.97;63.47;47546.00;5012338;28;20746;-85
2022/09/24 05:19:58;;;;;;;14.03;8.93;;;;;;;-141.97;63.59;47603.66;5014195;28;20163;-85
2022/09/24 05:22:26;;;;;;;13.93;9.67;;;;;;;-141.97;63.82;47559.44;5013090;28;20198;-85
2022/09/24 05:24:52;;;;;;;14.80;9.90;;;;;;;-141.97;63.53;47546.00;5044539;28;20195;-86
2022/09/24 05:27:20;;;;;;;14.07;9.37;;;;;;;-141.97;63.73;47572.91;5011723;28;20198;-85
2022/09/24 05:29:46;;;;;;;19.07;11.03;;;;;;;-141.97;64.29;47542.16;5012296;28;20159;-84
2022/09/24 05:32:15;;;;;;;11.83;9.27;;;;;;;-141.97;63.85;47524.84;5013044;28;20514;-84
2022/09/24 05:34:42;;;;;;;16.83;10.67;;;;;;;-141.97;63.45;47557.53;5013183;28;20237;-85
2022/09/24 05:37:08;;;;;;;14.77;9.37;;;;;;;-141.97;63.14;47565.22;5013015;28;20580;-86
2022/09/24 05:39:33;;;;;;;15.57;9.23;;;;;;;-141.97;63.47;47551.75;5012276;28;20189;-86
2022/09/24 05:41:59;;;;;;;19.30;12.70;;;;;;;-141.97;63.52;47561.38;5012091;28;20214;-86
2022/09/24 05:44:25;;;;;;;29.50;18.70;;;;;;;-141.97;63.09;47534.44;5012959;28;20163;-86
2022/09/24 05:46:51;;;;;;;26.77;15.20;;;;;;;-141.97;62.52;47524.84;5013815;28;20178;-85
2022/09/24 05:49:17;;;;;;;20.40;14.07;;;;;;;-141.97;61.52;47544.06;5012542;28;20680;-85
2022/09/24 05:51:42;;;;;;;18.07;12.73;;;;;;;-141.97;61.16;47584.44;5012474;28;20511;-85
2022/09/24 05:54:10;;;;;;;14.67;9.70;;;;;;;-141.97;60.02;47572.91;5013045;28;20174;-85
2022/09/24 05:56:36;;;;;;;12.47;8.97;;;;;;;-141.97;59.69;47584.44;5016290;28;20159;-85
2022/09/24 05:59:01;;;;;;;10.83;8.03;;;;;;;-141.97;58.47;47519.06;5016550;28;20173;-86
2022/09/24 06:01:30;;;;;;;10.50;7.17;;;;;;;-141.97;57.55;47522.91;5016352;28;20198;-84
2022/09/24 06:03:56;;;;;;;12.60;8.93;;;;;;;-141.97;57.40;47561.38;5017530;28;20189;-86
2022/09/24 06:06:23;;;;;;;14.47;9.03;;;;;;;-141.97;56.96;47546.00;5018687;28;20147;-86
2022/09/24 06:08:49;;;;;;;11.53;8.03;;;;;;;-141.97;56.56;47565.22;5019697;28;20182;-85
2022/09/24 06:11:14;;;;;;;11.00;7.37;;;;;;;-141.97;55.42;47546.00;5016518;28;20158;-86
2022/09/24 06:13:39;;;;;;;10.60;6.77;;;;;;;-141.97;55.10;47544.06;5015025;28;20237;-85
2022/09/24 06:16:07;;;;;;;10.87;6.80;;;;;;;-141.97;54.51;47563.28;5016025;28;20780;-85
2022/09/24 06:18:40;;;;;;;11.07;5.87;;;;;;;-141.97;53.30;47555.59;5016876;28;20225;-86
2022/09/24 06:21:08;;;;;;;8.17;6.47;;;;;;;-141.97;52.34;47476.78;5015888;28;20245;-85
2022/09/24 06:23:35;;;;;;;8.10;5.60;;;;;;;-141.97;51.82;47488.31;5016380;28;20512;-86
2022/09/24 06:26:01;;;;;;;8.00;6.10;;;;;;;-141.97;50.29;47530.59;5016779;28;20274;-86
2022/09/24 06:28:27;;;;;;;6.13;4.90;;;;;;;-141.97;48.92;47503.69;5015512;28;20173;-86
2022/09/24 06:30:52;;;;;;;5.47;4.87;;;;;;;-141.97;47.78;47484.47;5015623;28;20162;-86
2022/09/24 06:33:19;;;;;;;6.50;5.00;;;;;;;-141.97;47.59;47572.91;5047429;28;20175;-85
2022/09/24 06:35:45;;;;;;;8.00;4.60;;;;;;;-141.97;47.35;47542.16;5016584;28;20635;-85
2022/09/24 06:38:13;;;;;;;5.37;4.60;;;;;;;-141.97;47.00;47565.22;5015279;28;20185;-85
2022/09/24 06:40:39;;;;;;;7.27;4.60;;;;;;;-141.97;45.90;47494.09;5015303;28;20162;-86
2022/09/24 06:43:05;;;;;;;8.20;5.50;;;;;;;-141.97;45.78;47547.91;5018127;28;20195;-85
2022/09/24 06:45:32;;;;;;;6.63;4.30;;;;;;;-141.97;45.29;47524.84;5022414;28;20163;-85
2022/09/24 06:47:59;;;;;;;7.30;5.30;;;;;;;-141.97;44.83;47484.47;5020840;28;20167;-86
2022/09/24 06:50:28;;;;;;;6.07;4.80;;;;;;;-141.97;44.14;47667.06;5017893;28;20535;-85
2022/09/24 06:52:54;;;;;;;6.77;4.33;;;;;;;-141.97;43.44;47442.19;5017005;28;20163;-85
2022/09/24 06:55:20;;;;;;;7.77;4.60;;;;;;;-141.97;43.48;47522.91;5015607;28;20167;-86
2022/09/24 06:57:45;;;;;;;6.80;5.43;;;;;;;-141.97;43.01;47532.53;5015608;28;20169;-85
2022/09/24 07:00:12;;;;;;;8.53;6.03;;;;;;;-141.97;42.42;47524.84;5019542;28;20169;-85
2022/09/24 07:02:38;;;;;;;6.40;5.03;;;;;;;-141.97;41.93;47513.31;5014376;28;20195;-84
2022/09/24 07:05:04;;;;;;;9.13;5.90;;;;;;;-141.97;41.16;47522.91;5014412;28;20220;-85
2022/09/24 07:07:33;;;;;;;6.93;5.40;;;;;;;-141.97;41.13;47505.63;5030460;28;20158;-85
2022/09/24 07:10:06;;;;;;;8.47;5.33;;;;;;;-141.97;41.49;47551.75;5028005;28;20297;-86
2022/09/24 07:12:33;;;;;;;6.37;5.33;;;;;;;-141.97;40.49;47549.84;5014436;28;20193;-86
2022/09/24 07:15:00;;;;;;;5.33;4.43;;;;;;;-141.97;40.42;47507.53;5015534;28;20174;-86
2022/09/24 07:17:26;;;;;;;6.70;5.10;;;;;;;-141.97;39.98;47676.69;5014540;28;20245;-87
2022/09/24 07:19:52;;;;;;;7.80;5.07;;;;;;;-141.97;39.90;47496.00;5014796;28;20181;-87
2022/09/24 07:22:18;;;;;;;7.57;5.37;;;;;;;-141.97;39.23;47538.28;5015046;28;20730;-86
2022/09/24 07:24:44;;;;;;;6.37;5.10;;;;;;;-141.97;39.76;47419.13;5014742;28;20163;-86
2022/09/24 07:27:10;;;;;;;7.73;4.80;;;;;;;-141.97;39.20;47526.75;5014713;28;20166;-86
2022/09/24 07:29:36;;;;;;;6.37;5.07;;;;;;;-141.97;38.57;47411.44;5015128;28;20241;-86
2022/09/24 07:32:02;;;;;;;5.07;4.50;;;;;;;-141.97;38.84;47521.00;5019148;28;20159;-86
2022/09/24 07:34:28;;;;;;;5.40;4.57;;;;;;;-141.97;38.80;47515.22;5017019;28;20240;-87
2022/09/24 07:36:55;;;;;;;7.17;4.57;;;;;;;-141.97;38.38;47513.31;5016347;28;20620;-87
2022/09/24 07:39:21;;;;;;;6.17;4.40;;;;;;;-141.97;38.35;47530.59;5015140;28;20171;-86
2022/09/24 07:41:46;;;;;;;5.23;4.43;;;;;;;-141.97;38.55;47534.44;5014736;28;20190;-86
2022/09/24 07:44:12;;;;;;;6.60;4.40;;;;;;;-141.97;38.70;47499.84;5015028;28;20170;-86
2022/09/24 07:46:37;;;;;;;5.40;4.67;;;;;;;-141.97;38.15;47507.53;5014934;28;20166;-86
2022/09/24 07:49:03;;;;;;;5.83;4.67;;;;;;;-141.97;37.88;47549.84;5014098;28;20167;-87
2022/09/24 07:51:29;;;;;;;7.63;5.00;;;;;;;-141.97;36.82;47499.84;5014287;28;20159;-86
2022/09/24 07:53:55;;;;;;;6.70;4.80;;;;;;;-141.97;36.38;47482.56;5014590;28;20681;-86
2022/09/24 07:56:21;;;;;;;7.73;4.70;;;;;;;-141.97;36.90;47513.31;5015754;28;20163;-86
2022/09/24 07:58:51;;;;;;;7.67;4.97;;;;;;;-141.97;36.25;47451.81;5014795;28;20642;-87
2022/09/24 08:01:17;;;;;;;6.30;4.33;;;;;;;-141.97;36.37;47499.84;5014351;28;20194;-86
2022/09/24 08:03:45;;;;;;;5.80;5.03;;;;;;;-141.97;36.23;47465.25;5015408;28;20158;-87
2022/09/24 08:06:11;;;;;;;5.37;4.37;;;;;;;-141.97;35.30;47413.38;5016185;28;20619;-88
2022/09/24 08:08:37;;;;;;;7.90;4.57;;;;;;;-141.97;34.82;47486.41;5014863;28;20246;-86
2022/09/24 08:11:08;;;;;;;7.30;4.40;;;;;;;-141.97;33.95;47507.53;5015288;28;20615;-87
2022/09/24 08:13:33;;;;;;;7.47;4.00;;;;;;;-141.97;34.58;47511.38;5014063;28;20178;-86
2022/09/24 08:16:00;;;;;;;4.83;4.00;;;;;;;-141.97;34.06;47461.41;5014597;28;20171;-87
2022/09/24 08:18:29;;;;;;;5.07;4.20;;;;;;;-141.97;33.47;47463.34;5014579;28;20158;-87
2022/09/24 08:20:55;;;;;;;5.47;3.87;;;;;;;-141.97;33.81;47471.03;5014409;28;20163;-86
2022/09/24 08:23:20;;;;;;;6.47;4.20;;;;;;;-141.97;33.68;47434.50;5013593;28;20165;-86
2022/09/24 08:25:49;;;;;;;5.33;4.23;;;;;;;-141.97;33.45;47590.19;5012792;28;20181;-87
2022/09/24 08:28:15;;;;;;;4.87;4.23;;;;;;;-141.97;32.74;47496.00;5016743;28;20258;-85
2022/09/24 08:30:42;;;;;;;4.20;3.80;;;;;;;-141.97;32.13;47453.72;5019142;28;20162;-85
2022/09/24 08:33:09;;;;;;;4.00;3.60;;;;;;;-141.97;33.37;47476.78;5018491;28;20175;-85
2022/09/24 08:35:35;;;;;;;4.93;3.70;;;;;;;-141.97;33.76;47499.84;5014492;28;20612;-87
2022/09/24 08:38:02;;;;;;;7.03;4.20;;;;;;;-141.97;33.16;47486.41;5013306;28;20171;-86
2022/09/24 08:40:31;;;;;;;4.80;4.30;;;;;;;-141.97;32.85;47503.69;5013385;28;20166;-86
2022/09/24 08:43:14;;;;;;;6.37;4.20;;;;;;;-141.97;32.16;47484.47;5013943;28;20552;-88
2022/09/24 08:48:37;;;;;;;5.03;4.40;;;;;;;-141.97;31.24;47469.09;5013216;28;20348;-87
2022/09/24 08:51:07;;;;;;;6.03;3.70;;;;;;;-141.97;31.71;47492.16;5013338;28;20179;-87
2022/09/24 08:54:02;;;;;;;5.20;4.03;;;;;;;-141.97;31.90;47476.78;5013976;28;20174;-87
2022/09/24 08:56:34;;;;;;;4.70;3.80;;;;;;;-141.97;31.33;47622.88;5013543;28;20194;-87
2022/09/24 08:59:10;;;;;;;7.47;3.70;;;;;;;-141.97;30.38;47453.72;5013799;28;20170;-86
2022/09/24 09:01:53;;;;;;;5.13;3.70;;;;;;;-141.97;30.10;47488.31;5019322;28;20221;-86
2022/09/24 09:04:29;;;;;;;5.80;3.53;;;;;;;-141.97;30.13;47472.94;5013541;28;20712;-86
2022/09/24 09:07:07;;;;;;;6.60;3.50;;;;;;;-141.97;30.35;47465.25;5013622;28;20217;-87
2022/09/24 09:09:35;;;;;;;4.17;3.50;;;;;;;-141.97;30.23;47430.66;5014137;28;20155;-87
2022/09/24 09:12:07;;;;;;;4.07;3.30;;;;;;;-141.97;30.15;47492.16;5015091;28;20234;-86
2022/09/24 09:14:53;;;;;;;4.00;3.60;;;;;;;-141.97;30.14;47467.19;5023284;28;20162;-87
2022/09/24 09:17:44;;;;;;;5.30;3.77;;;;;;;-141.97;30.33;47467.19;5028330;28;20229;-86
2022/09/24 09:20:44;;;;;;;6.10;3.73;;;;;;;-141.97;30.12;47457.56;5014717;28;20178;-86
2022/09/24 09:23:31;;;;;;;4.53;3.50;;;;;;;-141.97;29.98;47461.41;4993062;28;20230;-86
2022/09/24 09:25:58;;;;;;;4.77;3.87;;;;;;;-141.97;29.65;47442.19;4995350;28;20182;-86
2022/09/24 09:28:27;;;;;;;4.57;3.23;;;;;;;-141.97;29.62;47432.59;5008050;28;20187;-83
2022/09/24 09:30:57;;;;;;;6.23;3.57;;;;;;;-141.97;29.58;47426.81;5017522;28;20186;-82
2022/09/24 09:33:35;;;;;;;5.60;3.80;;;;;;;-141.97;29.02;47451.81;4998881;28;20191;-86
2022/09/24 09:36:18;;;;;;;4.10;3.70;;;;;;;-141.97;28.23;47472.94;4996748;28;20181;-86
2022/09/24 09:38:59;;;;;;;4.60;3.10;;;;;;;-141.97;27.80;47446.03;4997997;28;20186;-87
2022/09/24 09:41:42;;;;;;;3.50;3.20;;;;;;;-141.97;27.67;47424.91;4995736;28;20277;-86
2022/09/24 09:44:14;;;;;;;3.37;3.00;;;;;;;-141.97;27.74;47442.19;4996275;28;20178;-86
2022/09/24 09:46:50;;;;;;;4.30;3.20;;;;;;;-141.97;27.61;47426.81;5003446;28;20202;-86
2022/09/24 09:49:16;;;;;;;5.83;3.13;;;;;;;-141.97;27.52;47388.38;5002715;28;20178;-85
2022/09/24 09:51:47;;;;;;;5.40;2.80;;;;;;;-141.97;27.45;47413.38;4996285;28;20202;-86
2022/09/24 09:54:13;;;;;;;3.10;2.70;;;;;;;-141.97;27.56;47422.97;4996247;28;20564;-86
2022/09/24 09:56:44;;;;;;;3.37;3.07;;;;;;;-141.97;28.02;47338.41;5005691;28;20172;-86
2022/09/24 09:59:09;;;;;;;3.47;3.10;;;;;;;-141.97;27.81;47438.34;5010494;28;20219;-86
2022/09/24 10:01:39;;;;;;;3.03;2.73;;;;;;;-141.97;27.51;47444.13;5022655;28;20193;-87
2022/09/24 10:04:05;;;;;;;4.00;3.00;;;;;;;-141.97;27.25;47449.88;5019971;28;20152;-86
2022/09/24 10:06:33;;;;;;;4.70;3.00;;;;;;;-141.97;27.28;47419.13;5021343;28;20166;-85
2022/09/24 10:09:18;;;;;;;3.17;2.87;;;;;;;-141.97;26.95;47407.59;5018226;28;20228;-86
2022/09/24 10:11:44;;;;;;;3.90;3.10;;;;;;;-141.97;27.19;47436.44;5018341;28;20154;-87
2022/09/24 10:14:12;;;;;;;3.70;3.00;;;;;;;-141.97;27.71;47371.09;5017730;28;20603;-86
2022/09/24 10:16:39;;;;;;;3.60;3.13;;;;;;;-141.97;27.66;47449.88;5017066;28;20226;-87
2022/09/24 10:19:26;;;;;;;3.87;3.23;;;;;;;-141.97;27.75;47465.25;5018153;28;20162;-86
2022/09/24 10:21:56;;;;;;;3.90;2.90;;;;;;;-141.97;27.83;47424.91;5021252;28;20252;-84
2022/09/24 10:24:24;;;;;;;5.70;3.10;;;;;;;-141.97;27.41;47428.75;5018766;28;20173;-84
2022/09/24 10:26:50;;;;;;;3.30;3.00;;;;;;;-141.97;26.86;47421.06;5018404;28;20598;-86
2022/09/24 10:32:18;;;;;;;3.20;2.90;;;;;;;-141.97;26.77;47438.34;5023123;28;20545;-86
2022/09/24 10:35:05;;;;;;;3.97;2.80;;;;;;;-141.97;26.12;47432.59;5021466;28;20174;-86
2022/09/24 10:37:31;;;;;;;4.27;3.20;;;;;;;-141.97;26.33;47428.75;5019634;28;20158;-86
2022/09/24 10:40:11;;;;;;;6.40;4.20;;;;;;;-141.97;26.62;47663.22;5017977;28;20166;-87
2022/09/24 10:42:37;;;;;;;4.30;3.60;;;;;;;-141.97;26.73;47411.44;5018971;28;20191;-87
2022/09/24 10:45:03;;;;;;;3.10;2.80;;;;;;;-141.97;27.04;47392.22;5020467;28;20229;-86
2022/09/24 10:47:42;;;;;;;3.30;3.00;;;;;;;-141.97;27.81;47442.19;5019891;28;20229;-86
2022/09/24 10:50:33;;;;;;;3.53;3.20;;;;;;;-141.97;27.18;47459.50;5018657;28;20162;-86
2022/09/24 10:53:06;;;;;;;3.90;3.10;;;;;;;-141.97;26.90;47438.34;4996733;28;20651;-87
2022/09/24 10:56:02;;;;;;;4.00;3.20;;;;;;;-141.97;27.01;47447.97;4996768;28;20187;-86
2022/09/24 10:58:52;;;;;;;3.80;3.23;;;;;;;-141.97;27.19;47438.34;4976077;28;20198;-86
2022/09/24 11:01:50;;;;;;;3.80;3.00;;;;;;;-141.97;27.29;47422.97;4976109;28;20196;-87
2022/09/24 11:04:40;;;;;;;3.57;3.27;;;;;;;-141.97;27.42;47436.44;4978219;28;20191;-86
2022/09/24 11:07:30;;;;;;;3.93;3.30;;;;;;;-141.97;27.22;47422.97;4975484;28;20183;-86
2022/09/24 11:10:26;;;;;;;4.77;3.10;;;;;;;-141.97;27.02;47426.81;4975514;28;20188;-86
2022/09/24 11:13:09;;;;;;;3.87;3.20;;;;;;;-141.97;26.86;47626.72;4975765;28;20172;-86
2022/09/24 11:16:07;;;;;;;3.10;2.87;;;;;;;-141.97;26.91;47440.28;4977703;28;20191;-86
2022/09/24 11:18:54;;;;;;;3.50;3.20;;;;;;;-141.97;27.17;47442.19;4962692;29;20208;-87
2022/09/24 11:21:35;;;;;;;3.40;3.10;;;;;;;-141.97;27.25;47463.34;4956634;29;20202;-87
2022/09/24 11:24:18;;;;;;;4.60;3.40;;;;;;;-141.97;26.82;47421.06;4957668;29;20207;-86
2022/09/24 11:27:36;;;;;;;3.20;2.90;;;;;;;-141.97;27.00;47424.91;4956677;29;20255;-87
2022/09/24 11:30:15;;;;;;;3.40;3.10;;;;;;;-141.97;27.16;47398.00;4879869;29;20267;-86
2022/09/24 11:32:40;;;;;;;3.40;3.10;;;;;;;-141.97;26.96;47384.53;4882112;29;20167;-87
2022/09/24 11:35:24;;;;;;;3.60;3.20;;;;;;;-141.97;27.06;47467.19;4873575;29;20199;-86
2022/09/24 11:37:59;;;;;;;3.17;2.80;;;;;;;-141.97;27.05;47407.59;4862632;29;20247;-85
2022/09/24 11:41:15;;;;;;;3.47;2.97;;;;;;;-141.97;27.02;47472.94;4860862;29;20192;-86